sensor_id;sensor_type;location;lat;lon;timestamp;P1;durP1;ratioP1;P2;durP2;ratioP2
57891;SDS011;43708;48.828;9.166;2023-04-25T00:01:59;0.40;;;0.40;;
57891;SDS011;43708;48.828;9.166;2023-04-25T00:04:25;0.60;;;0.60;;
57891;SDS011;43708;48.828;9.166;2023-04-25T00:06:52;0.60;;;0.60;;
57891;SDS011;43708;48.828;9.166;2023-04-25T00:09:19;0.50;;;0.50;;
57891;SDS011;43708;48.828;9.166;2023-04-25T00:11:44;0.52;;;0.52;;
57891;SDS011;43708;48.828;9.166;2023-04-25T00:14:10;0.47;;;0.47;;
57891;SDS011;43708;48.828;9.166;2023-04-25T00:16:35;0.60;;;0.60;;
57891;SDS011;43708;48.828;9.166;2023-04-25T00:19:01;0.60;;;0.60;;
57891;SDS011;43708;48.828;9.166;2023-04-25T00:21:28;1.50;;;0.65;;
57891;SDS011;43708;48.828;9.166;2023-04-25T00:23:54;0.60;;;0.60;;
57891;SDS011;43708;48.828;9.166;2023-04-25T00:26:20;1.08;;;0.60;;
57891;SDS011;43708;48.828;9.166;2023-04-25T00:28:46;0.80;;;0.70;;
57891;SDS011;43708;48.828;9.166;2023-04-25T00:31:12;0.50;;;0.50;;
57891;SDS011;43708;48.828;9.166;2023-04-25T00:33:38;0.40;;;0.40;;
57891;SDS011;43708;48.828;9.166;2023-04-25T00:36:04;1.17;;;0.47;;
57891;SDS011;43708;48.828;9.166;2023-04-25T00:38:30;0.55;;;0.55;;
57891;SDS011;43708;48.828;9.166;2023-04-25T00:40:55;0.50;;;0.43;;
57891;SDS011;43708;48.828;9.166;2023-04-25T00:43:22;0.43;;;0.43;;
57891;SDS011;43708;48.828;9.166;2023-04-25T00:45:51;2.05;;;0.50;;
57891;SDS011;43708;48.828;9.166;2023-04-25T00:48:17;0.50;;;0.47;;
57891;SDS011;43708;48.828;9.166;2023-04-25T00:50:58;0.50;;;0.50;;
57891;SDS011;43708;48.828;9.166;2023-04-25T00:53:25;0.55;;;0.45;;
57891;SDS011;43708;48.828;9.166;2023-04-25T00:55:52;0.40;;;0.40;;
57891;SDS011;43708;48.828;9.166;2023-04-25T00:58:19;0.40;;;0.40;;
57891;SDS011;43708;48.828;9.166;2023-04-25T01:00:45;0.60;;;0.50;;
57891;SDS011;43708;48.828;9.166;2023-04-25T01:03:13;0.77;;;0.40;;
57891;SDS011;43708;48.828;9.166;2023-04-25T01:05:41;0.63;;;0.63;;
57891;SDS011;43708;48.828;9.166;2023-04-25T01:08:07;0.57;;;0.50;;
57891;SDS011;43708;48.828;9.166;2023-04-25T01:10:33;0.73;;;0.73;;
57891;SDS011;43708;48.828;9.166;2023-04-25T01:12:59;0.80;;;0.70;;
57891;SDS011;43708;48.828;9.166;2023-04-25T01:15:24;0.63;;;0.60;;
57891;SDS011;43708;48.828;9.166;2023-04-25T01:17:50;0.60;;;0.60;;
57891;SDS011;43708;48.828;9.166;2023-04-25T01:20:16;0.73;;;0.60;;
57891;SDS011;43708;48.828;9.166;2023-04-25T01:22:42;1.25;;;0.70;;
57891;SDS011;43708;48.828;9.166;2023-04-25T01:25:08;0.73;;;0.73;;
57891;SDS011;43708;48.828;9.166;2023-04-25T01:27:35;0.50;;;0.50;;
57891;SDS011;43708;48.828;9.166;2023-04-25T01:30:01;0.60;;;0.60;;
57891;SDS011;43708;48.828;9.166;2023-04-25T01:32:28;0.68;;;0.68;;
57891;SDS011;43708;48.828;9.166;2023-04-25T01:34:54;0.70;;;0.70;;
57891;SDS011;43708;48.828;9.166;2023-04-25T01:37:19;0.55;;;0.55;;
57891;SDS011;43708;48.828;9.166;2023-04-25T01:39:46;0.50;;;0.50;;
57891;SDS011;43708;48.828;9.166;2023-04-25T01:42:13;0.60;;;0.60;;
57891;SDS011;43708;48.828;9.166;2023-04-25T01:44:39;0.60;;;0.60;;
57891;SDS011;43708;48.828;9.166;2023-04-25T01:47:04;0.70;;;0.70;;
57891;SDS011;43708;48.828;9.166;2023-04-25T01:49:30;0.60;;;0.60;;
57891;SDS011;43708;48.828;9.166;2023-04-25T01:51:56;0.55;;;0.55;;
57891;SDS011;43708;48.828;9.166;2023-04-25T01:54:21;0.68;;;0.60;;
57891;SDS011;43708;48.828;9.166;2023-04-25T01:56:50;0.60;;;0.60;;
57891;SDS011;43708;48.828;9.166;2023-04-25T01:59:16;0.55;;;0.55;;
57891;SDS011;43708;48.828;9.166;2023-04-25T02:01:44;0.70;;;0.70;;
57891;SDS011;43708;48.828;9.166;2023-04-25T02:04:10;0.80;;;0.60;;
57891;SDS011;43708;48.828;9.166;2023-04-25T02:06:36;0.60;;;0.60;;
57891;SDS011;43708;48.828;9.166;2023-04-25T02:09:01;0.65;;;0.60;;
57891;SDS011;43708;48.828;9.166;2023-04-25T02:11:27;0.60;;;0.60;;
57891;SDS011;43708;48.828;9.166;2023-04-25T02:13:52;0.82;;;0.82;;
57891;SDS011;43708;48.828;9.166;2023-04-25T02:16:18;0.70;;;0.70;;
57891;SDS011;43708;48.828;9.166;2023-04-25T02:18:43;0.45;;;0.45;;
57891;SDS011;43708;48.828;9.166;2023-04-25T02:21:10;0.85;;;0.70;;
57891;SDS011;43708;48.828;9.166;2023-04-25T02:23:36;0.80;;;0.55;;
57891;SDS011;43708;48.828;9.166;2023-04-25T02:26:02;0.60;;;0.60;;
57891;SDS011;43708;48.828;9.166;2023-04-25T02:28:28;0.70;;;0.60;;
57891;SDS011;43708;48.828;9.166;2023-04-25T02:30:53;0.63;;;0.63;;
57891;SDS011;43708;48.828;9.166;2023-04-25T02:33:19;1.13;;;0.80;;
57891;SDS011;43708;48.828;9.166;2023-04-25T02:35:46;0.65;;;0.60;;
57891;SDS011;43708;48.828;9.166;2023-04-25T02:38:11;0.55;;;0.50;;
57891;SDS011;43708;48.828;9.166;2023-04-25T02:40:37;0.75;;;0.75;;
57891;SDS011;43708;48.828;9.166;2023-04-25T02:43:02;0.55;;;0.55;;
57891;SDS011;43708;48.828;9.166;2023-04-25T02:45:28;0.82;;;0.82;;
57891;SDS011;43708;48.828;9.166;2023-04-25T02:47:54;0.50;;;0.50;;
57891;SDS011;43708;48.828;9.166;2023-04-25T02:50:19;0.60;;;0.60;;
57891;SDS011;43708;48.828;9.166;2023-04-25T02:52:45;0.70;;;0.70;;
57891;SDS011;43708;48.828;9.166;2023-04-25T02:55:11;0.70;;;0.60;;
57891;SDS011;43708;48.828;9.166;2023-04-25T02:57:37;0.60;;;0.60;;
57891;SDS011;43708;48.828;9.166;2023-04-25T03:00:03;0.68;;;0.68;;
57891;SDS011;43708;48.828;9.166;2023-04-25T03:02:30;0.60;;;0.57;;
57891;SDS011;43708;48.828;9.166;2023-04-25T03:04:55;0.70;;;0.70;;
57891;SDS011;43708;48.828;9.166;2023-04-25T03:07:21;0.80;;;0.80;;
57891;SDS011;43708;48.828;9.166;2023-04-25T03:09:47;0.70;;;0.70;;
57891;SDS011;43708;48.828;9.166;2023-04-25T03:12:12;0.60;;;0.60;;
57891;SDS011;43708;48.828;9.166;2023-04-25T03:14:38;0.65;;;0.65;;
57891;SDS011;43708;48.828;9.166;2023-04-25T03:17:03;0.70;;;0.70;;
57891;SDS011;43708;48.828;9.166;2023-04-25T03:19:29;0.60;;;0.60;;
57891;SDS011;43708;48.828;9.166;2023-04-25T03:21:55;0.80;;;0.80;;
57891;SDS011;43708;48.828;9.166;2023-04-25T03:24:21;0.60;;;0.60;;
57891;SDS011;43708;48.828;9.166;2023-04-25T03:26:46;0.50;;;0.50;;
57891;SDS011;43708;48.828;9.166;2023-04-25T03:29:12;0.50;;;0.50;;
57891;SDS011;43708;48.828;9.166;2023-04-25T03:31:38;0.60;;;0.60;;
57891;SDS011;43708;48.828;9.166;2023-04-25T03:34:03;0.50;;;0.50;;
57891;SDS011;43708;48.828;9.166;2023-04-25T03:36:29;0.40;;;0.40;;
57891;SDS011;43708;48.828;9.166;2023-04-25T03:38:54;0.50;;;0.50;;
57891;SDS011;43708;48.828;9.166;2023-04-25T03:41:21;0.47;;;0.45;;
57891;SDS011;43708;48.828;9.166;2023-04-25T03:43:47;0.60;;;0.60;;
57891;SDS011;43708;48.828;9.166;2023-04-25T03:46:12;0.70;;;0.70;;
57891;SDS011;43708;48.828;9.166;2023-04-25T03:48:38;0.60;;;0.60;;
57891;SDS011;43708;48.828;9.166;2023-04-25T03:51:04;0.65;;;0.60;;
57891;SDS011;43708;48.828;9.166;2023-04-25T03:53:29;1.27;;;0.60;;
57891;SDS011;43708;48.828;9.166;2023-04-25T03:55:55;0.70;;;0.50;;
57891;SDS011;43708;48.828;9.166;2023-04-25T03:58:20;0.60;;;0.60;;
57891;SDS011;43708;48.828;9.166;2023-04-25T04:00:48;0.50;;;0.50;;
57891;SDS011;43708;48.828;9.166;2023-04-25T04:03:13;0.50;;;0.50;;
57891;SDS011;43708;48.828;9.166;2023-04-25T04:05:39;0.50;;;0.50;;
57891;SDS011;43708;48.828;9.166;2023-04-25T04:08:05;0.43;;;0.40;;
57891;SDS011;43708;48.828;9.166;2023-04-25T04:10:31;0.50;;;0.50;;
57891;SDS011;43708;48.828;9.166;2023-04-25T04:12:57;0.60;;;0.60;;
57891;SDS011;43708;48.828;9.166;2023-04-25T04:15:22;0.50;;;0.50;;
57891;SDS011;43708;48.828;9.166;2023-04-25T04:17:48;0.50;;;0.50;;
57891;SDS011;43708;48.828;9.166;2023-04-25T04:20:14;0.55;;;0.50;;
57891;SDS011;43708;48.828;9.166;2023-04-25T04:22:39;0.43;;;0.43;;
57891;SDS011;43708;48.828;9.166;2023-04-25T04:25:05;0.60;;;0.60;;
57891;SDS011;43708;48.828;9.166;2023-04-25T04:27:31;0.50;;;0.50;;
57891;SDS011;43708;48.828;9.166;2023-04-25T04:29:57;0.40;;;0.40;;
57891;SDS011;43708;48.828;9.166;2023-04-25T04:32:22;0.50;;;0.50;;
57891;SDS011;43708;48.828;9.166;2023-04-25T04:34:48;0.52;;;0.50;;
57891;SDS011;43708;48.828;9.166;2023-04-25T04:37:14;0.50;;;0.50;;
57891;SDS011;43708;48.828;9.166;2023-04-25T04:39:40;0.50;;;0.50;;
57891;SDS011;43708;48.828;9.166;2023-04-25T04:42:05;0.50;;;0.45;;
57891;SDS011;43708;48.828;9.166;2023-04-25T04:44:31;0.90;;;0.65;;
57891;SDS011;43708;48.828;9.166;2023-04-25T04:46:58;0.50;;;0.50;;
57891;SDS011;43708;48.828;9.166;2023-04-25T04:49:23;0.68;;;0.40;;
57891;SDS011;43708;48.828;9.166;2023-04-25T04:51:49;0.40;;;0.40;;
57891;SDS011;43708;48.828;9.166;2023-04-25T04:54:16;0.50;;;0.50;;
57891;SDS011;43708;48.828;9.166;2023-04-25T04:56:42;0.40;;;0.40;;
57891;SDS011;43708;48.828;9.166;2023-04-25T04:59:07;0.70;;;0.65;;
57891;SDS011;43708;48.828;9.166;2023-04-25T05:01:33;1.33;;;0.50;;
57891;SDS011;43708;48.828;9.166;2023-04-25T05:04:01;0.60;;;0.60;;
57891;SDS011;43708;48.828;9.166;2023-04-25T05:06:28;0.55;;;0.55;;
57891;SDS011;43708;48.828;9.166;2023-04-25T05:08:54;0.50;;;0.50;;
57891;SDS011;43708;48.828;9.166;2023-04-25T05:11:21;0.55;;;0.55;;
57891;SDS011;43708;48.828;9.166;2023-04-25T05:13:48;0.45;;;0.45;;
57891;SDS011;43708;48.828;9.166;2023-04-25T05:16:14;0.40;;;0.40;;
57891;SDS011;43708;48.828;9.166;2023-04-25T05:18:39;0.57;;;0.57;;
57891;SDS011;43708;48.828;9.166;2023-04-25T05:21:05;0.60;;;0.60;;
57891;SDS011;43708;48.828;9.166;2023-04-25T05:23:31;0.40;;;0.40;;
57891;SDS011;43708;48.828;9.166;2023-04-25T05:25:58;0.32;;;0.32;;
57891;SDS011;43708;48.828;9.166;2023-04-25T05:28:24;0.40;;;0.40;;
57891;SDS011;43708;48.828;9.166;2023-04-25T05:30:49;0.55;;;0.50;;
57891;SDS011;43708;48.828;9.166;2023-04-25T05:33:15;0.60;;;0.60;;
57891;SDS011;43708;48.828;9.166;2023-04-25T05:35:41;0.60;;;0.55;;
57891;SDS011;43708;48.828;9.166;2023-04-25T05:38:07;0.50;;;0.50;;
57891;SDS011;43708;48.828;9.166;2023-04-25T05:40:34;0.45;;;0.40;;
57891;SDS011;43708;48.828;9.166;2023-04-25T05:42:59;0.75;;;0.70;;
57891;SDS011;43708;48.828;9.166;2023-04-25T05:45:25;0.57;;;0.57;;
57891;SDS011;43708;48.828;9.166;2023-04-25T05:47:51;0.50;;;0.50;;
57891;SDS011;43708;48.828;9.166;2023-04-25T05:50:16;0.65;;;0.65;;
57891;SDS011;43708;48.828;9.166;2023-04-25T05:52:42;1.02;;;0.60;;
57891;SDS011;43708;48.828;9.166;2023-04-25T05:55:08;0.55;;;0.55;;
57891;SDS011;43708;48.828;9.166;2023-04-25T05:57:34;0.70;;;0.70;;
57891;SDS011;43708;48.828;9.166;2023-04-25T06:00:00;2.45;;;1.17;;
57891;SDS011;43708;48.828;9.166;2023-04-25T06:02:26;2.50;;;0.85;;
57891;SDS011;43708;48.828;9.166;2023-04-25T06:04:51;0.80;;;0.68;;
57891;SDS011;43708;48.828;9.166;2023-04-25T06:07:17;1.13;;;0.52;;
57891;SDS011;43708;48.828;9.166;2023-04-25T06:09:44;1.17;;;0.85;;
57891;SDS011;43708;48.828;9.166;2023-04-25T06:12:09;2.90;;;1.15;;
57891;SDS011;43708;48.828;9.166;2023-04-25T06:14:38;1.90;;;0.90;;
57891;SDS011;43708;48.828;9.166;2023-04-25T06:17:04;1.25;;;0.82;;
57891;SDS011;43708;48.828;9.166;2023-04-25T06:19:33;1.42;;;1.10;;
57891;SDS011;43708;48.828;9.166;2023-04-25T06:22:00;0.95;;;0.73;;
57891;SDS011;43708;48.828;9.166;2023-04-25T06:24:26;1.33;;;0.88;;
57891;SDS011;43708;48.828;9.166;2023-04-25T06:26:52;2.22;;;1.17;;
57891;SDS011;43708;48.828;9.166;2023-04-25T06:29:17;1.67;;;0.98;;
57891;SDS011;43708;48.828;9.166;2023-04-25T06:31:43;4.70;;;1.45;;
57891;SDS011;43708;48.828;9.166;2023-04-25T06:34:09;2.15;;;0.88;;
57891;SDS011;43708;48.828;9.166;2023-04-25T06:36:34;2.55;;;1.17;;
57891;SDS011;43708;48.828;9.166;2023-04-25T06:39:00;1.30;;;1.00;;
57891;SDS011;43708;48.828;9.166;2023-04-25T06:41:26;2.40;;;1.20;;
57891;SDS011;43708;48.828;9.166;2023-04-25T06:43:51;4.13;;;1.20;;
57891;SDS011;43708;48.828;9.166;2023-04-25T06:46:17;2.25;;;1.00;;
57891;SDS011;43708;48.828;9.166;2023-04-25T06:48:43;2.80;;;1.10;;
57891;SDS011;43708;48.828;9.166;2023-04-25T06:51:08;2.53;;;1.08;;
57891;SDS011;43708;48.828;9.166;2023-04-25T06:53:34;1.50;;;1.10;;
57891;SDS011;43708;48.828;9.166;2023-04-25T06:55:59;2.85;;;1.20;;
57891;SDS011;43708;48.828;9.166;2023-04-25T06:58:25;1.25;;;0.80;;
57891;SDS011;43708;48.828;9.166;2023-04-25T07:00:51;3.00;;;1.00;;
57891;SDS011;43708;48.828;9.166;2023-04-25T07:03:17;2.40;;;1.30;;
57891;SDS011;43708;48.828;9.166;2023-04-25T07:05:42;1.52;;;0.88;;
57891;SDS011;43708;48.828;9.166;2023-04-25T07:08:08;2.60;;;0.95;;
57891;SDS011;43708;48.828;9.166;2023-04-25T07:10:33;1.20;;;1.00;;
57891;SDS011;43708;48.828;9.166;2023-04-25T07:13:00;1.83;;;1.40;;
57891;SDS011;43708;48.828;9.166;2023-04-25T07:15:25;6.25;;;2.78;;
57891;SDS011;43708;48.828;9.166;2023-04-25T07:17:53;5.32;;;2.67;;
57891;SDS011;43708;48.828;9.166;2023-04-25T07:20:18;3.80;;;2.33;;
57891;SDS011;43708;48.828;9.166;2023-04-25T07:22:44;5.20;;;2.70;;
57891;SDS011;43708;48.828;9.166;2023-04-25T07:25:09;5.28;;;2.35;;
57891;SDS011;43708;48.828;9.166;2023-04-25T07:27:35;5.53;;;2.58;;
57891;SDS011;43708;48.828;9.166;2023-04-25T07:30:01;5.82;;;2.53;;
57891;SDS011;43708;48.828;9.166;2023-04-25T07:32:27;4.22;;;2.50;;
57891;SDS011;43708;48.828;9.166;2023-04-25T07:34:53;4.85;;;2.45;;
57891;SDS011;43708;48.828;9.166;2023-04-25T07:37:18;5.38;;;2.50;;
57891;SDS011;43708;48.828;9.166;2023-04-25T07:39:45;5.90;;;2.50;;
57891;SDS011;43708;48.828;9.166;2023-04-25T07:42:12;3.47;;;2.22;;
57891;SDS011;43708;48.828;9.166;2023-04-25T07:44:38;4.97;;;2.30;;
57891;SDS011;43708;48.828;9.166;2023-04-25T07:47:08;3.55;;;1.83;;
57891;SDS011;43708;48.828;9.166;2023-04-25T07:49:35;5.88;;;2.90;;
57891;SDS011;43708;48.828;9.166;2023-04-25T07:52:01;6.25;;;2.60;;
57891;SDS011;43708;48.828;9.166;2023-04-25T07:54:28;3.80;;;1.92;;
57891;SDS011;43708;48.828;9.166;2023-04-25T07:56:54;4.97;;;2.15;;
57891;SDS011;43708;48.828;9.166;2023-04-25T07:59:20;4.78;;;2.08;;
57891;SDS011;43708;48.828;9.166;2023-04-25T08:01:47;3.63;;;1.90;;
57891;SDS011;43708;48.828;9.166;2023-04-25T08:04:13;5.45;;;2.65;;
57891;SDS011;43708;48.828;9.166;2023-04-25T08:06:38;4.75;;;2.17;;
57891;SDS011;43708;48.828;9.166;2023-04-25T08:09:05;4.88;;;2.10;;
57891;SDS011;43708;48.828;9.166;2023-04-25T08:11:31;4.15;;;2.03;;
57891;SDS011;43708;48.828;9.166;2023-04-25T08:13:56;4.93;;;2.00;;
57891;SDS011;43708;48.828;9.166;2023-04-25T08:16:22;4.32;;;2.03;;
57891;SDS011;43708;48.828;9.166;2023-04-25T08:18:47;3.88;;;1.73;;
57891;SDS011;43708;48.828;9.166;2023-04-25T08:21:14;2.33;;;1.48;;
57891;SDS011;43708;48.828;9.166;2023-04-25T08:23:40;2.55;;;1.95;;
57891;SDS011;43708;48.828;9.166;2023-04-25T08:26:05;3.65;;;1.55;;
57891;SDS011;43708;48.828;9.166;2023-04-25T08:28:32;3.35;;;1.75;;
57891;SDS011;43708;48.828;9.166;2023-04-25T08:30:58;4.60;;;2.08;;
57891;SDS011;43708;48.828;9.166;2023-04-25T08:33:24;2.75;;;1.45;;
57891;SDS011;43708;48.828;9.166;2023-04-25T08:35:50;3.97;;;2.05;;
57891;SDS011;43708;48.828;9.166;2023-04-25T08:38:16;4.47;;;2.42;;
57891;SDS011;43708;48.828;9.166;2023-04-25T08:40:43;3.88;;;2.10;;
57891;SDS011;43708;48.828;9.166;2023-04-25T08:43:08;2.22;;;1.80;;
57891;SDS011;43708;48.828;9.166;2023-04-25T08:45:40;3.10;;;1.88;;
57891;SDS011;43708;48.828;9.166;2023-04-25T08:48:13;2.85;;;1.45;;
57891;SDS011;43708;48.828;9.166;2023-04-25T08:50:45;3.40;;;1.67;;
57891;SDS011;43708;48.828;9.166;2023-04-25T08:53:18;2.55;;;1.52;;
57891;SDS011;43708;48.828;9.166;2023-04-25T08:55:50;3.50;;;1.95;;
57891;SDS011;43708;48.828;9.166;2023-04-25T08:58:16;2.42;;;1.50;;
57891;SDS011;43708;48.828;9.166;2023-04-25T09:00:43;2.63;;;1.70;;
57891;SDS011;43708;48.828;9.166;2023-04-25T09:03:11;2.80;;;1.60;;
57891;SDS011;43708;48.828;9.166;2023-04-25T09:05:37;2.00;;;1.40;;
57891;SDS011;43708;48.828;9.166;2023-04-25T09:08:05;3.72;;;1.70;;
57891;SDS011;43708;48.828;9.166;2023-04-25T09:10:31;2.80;;;1.58;;
57891;SDS011;43708;48.828;9.166;2023-04-25T09:13:03;2.55;;;1.35;;
57891;SDS011;43708;48.828;9.166;2023-04-25T09:15:53;2.30;;;1.52;;
57891;SDS011;43708;48.828;9.166;2023-04-25T09:20:55;1.60;;;1.00;;
57891;SDS011;43708;48.828;9.166;2023-04-25T09:23:43;1.48;;;1.00;;
57891;SDS011;43708;48.828;9.166;2023-04-25T09:26:15;1.98;;;1.17;;
57891;SDS011;43708;48.828;9.166;2023-04-25T09:28:45;1.52;;;1.30;;
57891;SDS011;43708;48.828;9.166;2023-04-25T09:31:20;1.23;;;1.10;;
57891;SDS011;43708;48.828;9.166;2023-04-25T09:33:49;1.55;;;1.10;;
57891;SDS011;43708;48.828;9.166;2023-04-25T09:36:15;1.48;;;1.17;;
57891;SDS011;43708;48.828;9.166;2023-04-25T09:38:44;1.33;;;1.08;;
57891;SDS011;43708;48.828;9.166;2023-04-25T09:41:10;1.58;;;1.40;;
57891;SDS011;43708;48.828;9.166;2023-04-25T09:43:37;1.58;;;1.10;;
57891;SDS011;43708;48.828;9.166;2023-04-25T09:46:07;3.28;;;1.00;;
57891;SDS011;43708;48.828;9.166;2023-04-25T09:48:34;3.15;;;1.38;;
57891;SDS011;43708;48.828;9.166;2023-04-25T09:53:33;1.92;;;1.15;;
57891;SDS011;43708;48.828;9.166;2023-04-25T09:56:00;3.83;;;1.90;;
57891;SDS011;43708;48.828;9.166;2023-04-25T09:58:30;3.08;;;1.48;;
57891;SDS011;43708;48.828;9.166;2023-04-25T10:00:59;2.55;;;1.60;;
57891;SDS011;43708;48.828;9.166;2023-04-25T10:03:26;1.70;;;1.33;;
57891;SDS011;43708;48.828;9.166;2023-04-25T10:05:55;3.15;;;1.50;;
57891;SDS011;43708;48.828;9.166;2023-04-25T10:08:27;3.53;;;1.75;;
57891;SDS011;43708;48.828;9.166;2023-04-25T10:11:01;2.42;;;1.65;;
57891;SDS011;43708;48.828;9.166;2023-04-25T10:13:31;2.90;;;1.85;;
57891;SDS011;43708;48.828;9.166;2023-04-25T10:16:03;2.15;;;1.52;;
57891;SDS011;43708;48.828;9.166;2023-04-25T10:18:30;2.33;;;1.70;;
57891;SDS011;43708;48.828;9.166;2023-04-25T10:20:58;2.58;;;1.50;;
57891;SDS011;43708;48.828;9.166;2023-04-25T10:23:25;2.53;;;1.88;;
57891;SDS011;43708;48.828;9.166;2023-04-25T10:25:52;2.30;;;1.58;;
57891;SDS011;43708;48.828;9.166;2023-04-25T10:28:19;2.47;;;1.60;;
57891;SDS011;43708;48.828;9.166;2023-04-25T10:31:01;1.98;;;1.40;;
57891;SDS011;43708;48.828;9.166;2023-04-25T10:33:32;3.05;;;1.35;;
57891;SDS011;43708;48.828;9.166;2023-04-25T10:36:09;2.28;;;1.45;;
57891;SDS011;43708;48.828;9.166;2023-04-25T10:38:42;2.10;;;1.52;;
57891;SDS011;43708;48.828;9.166;2023-04-25T10:41:09;2.83;;;1.77;;
57891;SDS011;43708;48.828;9.166;2023-04-25T10:43:39;1.73;;;1.17;;
57891;SDS011;43708;48.828;9.166;2023-04-25T10:46:30;2.08;;;1.65;;
57891;SDS011;43708;48.828;9.166;2023-04-25T10:48:56;1.40;;;1.30;;
57891;SDS011;43708;48.828;9.166;2023-04-25T10:51:24;2.70;;;1.67;;
57891;SDS011;43708;48.828;9.166;2023-04-25T10:56:22;2.35;;;1.63;;
57891;SDS011;43708;48.828;9.166;2023-04-25T10:58:48;2.00;;;1.30;;
57891;SDS011;43708;48.828;9.166;2023-04-25T11:01:14;2.00;;;1.35;;
57891;SDS011;43708;48.828;9.166;2023-04-25T11:03:44;2.30;;;1.52;;
57891;SDS011;43708;48.828;9.166;2023-04-25T11:09:02;1.60;;;1.23;;
57891;SDS011;43708;48.828;9.166;2023-04-25T11:11:36;1.27;;;1.15;;
57891;SDS011;43708;48.828;9.166;2023-04-25T11:14:02;1.38;;;1.27;;
57891;SDS011;43708;48.828;9.166;2023-04-25T11:16:27;1.00;;;0.90;;
57891;SDS011;43708;48.828;9.166;2023-04-25T11:18:53;1.45;;;1.00;;
57891;SDS011;43708;48.828;9.166;2023-04-25T11:21:21;1.35;;;1.10;;
57891;SDS011;43708;48.828;9.166;2023-04-25T11:23:47;2.08;;;1.38;;
57891;SDS011;43708;48.828;9.166;2023-04-25T11:26:13;1.92;;;1.10;;
57891;SDS011;43708;48.828;9.166;2023-04-25T11:28:40;1.13;;;0.90;;
57891;SDS011;43708;48.828;9.166;2023-04-25T11:31:05;3.08;;;1.30;;
57891;SDS011;43708;48.828;9.166;2023-04-25T11:33:31;1.58;;;1.23;;
57891;SDS011;43708;48.828;9.166;2023-04-25T11:35:57;1.77;;;1.40;;
57891;SDS011;43708;48.828;9.166;2023-04-25T11:38:24;2.63;;;1.50;;
57891;SDS011;43708;48.828;9.166;2023-04-25T11:40:53;2.40;;;1.20;;
57891;SDS011;43708;48.828;9.166;2023-04-25T11:43:20;3.45;;;1.30;;
57891;SDS011;43708;48.828;9.166;2023-04-25T11:45:49;1.27;;;1.13;;
57891;SDS011;43708;48.828;9.166;2023-04-25T11:48:16;1.27;;;1.17;;
57891;SDS011;43708;48.828;9.166;2023-04-25T11:50:42;1.30;;;1.20;;
57891;SDS011;43708;48.828;9.166;2023-04-25T11:53:08;1.63;;;1.17;;
57891;SDS011;43708;48.828;9.166;2023-04-25T11:55:34;2.38;;;1.50;;
57891;SDS011;43708;48.828;9.166;2023-04-25T11:58:00;2.25;;;1.20;;
57891;SDS011;43708;48.828;9.166;2023-04-25T12:00:28;1.45;;;1.10;;
57891;SDS011;43708;48.828;9.166;2023-04-25T12:02:55;2.17;;;1.52;;
57891;SDS011;43708;48.828;9.166;2023-04-25T12:05:31;1.52;;;1.42;;
57891;SDS011;43708;48.828;9.166;2023-04-25T12:08:13;1.55;;;1.40;;
57891;SDS011;43708;48.828;9.166;2023-04-25T12:10:40;1.45;;;1.27;;
57891;SDS011;43708;48.828;9.166;2023-04-25T12:13:17;1.30;;;1.10;;
57891;SDS011;43708;48.828;9.166;2023-04-25T12:15:48;1.70;;;1.25;;
57891;SDS011;43708;48.828;9.166;2023-04-25T12:18:13;1.55;;;1.00;;
57891;SDS011;43708;48.828;9.166;2023-04-25T12:20:39;1.35;;;1.15;;
57891;SDS011;43708;48.828;9.166;2023-04-25T12:23:06;1.23;;;0.93;;
57891;SDS011;43708;48.828;9.166;2023-04-25T12:28:18;2.05;;;0.90;;
57891;SDS011;43708;48.828;9.166;2023-04-25T12:30:55;3.72;;;0.98;;
57891;SDS011;43708;48.828;9.166;2023-04-25T12:33:33;0.82;;;0.82;;
57891;SDS011;43708;48.828;9.166;2023-04-25T12:36:02;0.70;;;0.68;;
57891;SDS011;43708;48.828;9.166;2023-04-25T12:38:36;1.25;;;1.00;;
57891;SDS011;43708;48.828;9.166;2023-04-25T12:41:06;1.55;;;1.13;;
57891;SDS011;43708;48.828;9.166;2023-04-25T12:43:32;1.00;;;0.90;;
57891;SDS011;43708;48.828;9.166;2023-04-25T12:45:58;1.48;;;1.00;;
57891;SDS011;43708;48.828;9.166;2023-04-25T12:48:24;2.38;;;1.08;;
57891;SDS011;43708;48.828;9.166;2023-04-25T12:50:50;2.00;;;1.25;;
57891;SDS011;43708;48.828;9.166;2023-04-25T12:53:17;1.88;;;1.38;;
57891;SDS011;43708;48.828;9.166;2023-04-25T12:55:43;2.08;;;1.33;;
57891;SDS011;43708;48.828;9.166;2023-04-25T12:58:15;1.27;;;1.15;;
57891;SDS011;43708;48.828;9.166;2023-04-25T13:00:43;1.02;;;0.90;;
57891;SDS011;43708;48.828;9.166;2023-04-25T13:03:11;1.45;;;1.13;;
57891;SDS011;43708;48.828;9.166;2023-04-25T13:05:37;2.35;;;1.08;;
57891;SDS011;43708;48.828;9.166;2023-04-25T13:08:03;0.93;;;0.82;;
57891;SDS011;43708;48.828;9.166;2023-04-25T13:10:29;1.63;;;1.15;;
57891;SDS011;43708;48.828;9.166;2023-04-25T13:12:55;1.10;;;0.95;;
57891;SDS011;43708;48.828;9.166;2023-04-25T13:15:20;1.30;;;1.20;;
57891;SDS011;43708;48.828;9.166;2023-04-25T13:17:46;1.65;;;1.10;;
57891;SDS011;43708;48.828;9.166;2023-04-25T13:20:12;1.52;;;0.93;;
57891;SDS011;43708;48.828;9.166;2023-04-25T13:22:39;3.05;;;1.00;;
57891;SDS011;43708;48.828;9.166;2023-04-25T13:25:05;2.42;;;1.10;;
57891;SDS011;43708;48.828;9.166;2023-04-25T13:27:32;1.85;;;1.13;;
57891;SDS011;43708;48.828;9.166;2023-04-25T13:30:02;1.27;;;1.17;;
57891;SDS011;43708;48.828;9.166;2023-04-25T13:32:32;1.25;;;1.10;;
57891;SDS011;43708;48.828;9.166;2023-04-25T13:35:00;1.10;;;0.98;;
57891;SDS011;43708;48.828;9.166;2023-04-25T13:37:27;1.38;;;1.13;;
57891;SDS011;43708;48.828;9.166;2023-04-25T13:39:54;2.67;;;1.17;;
57891;SDS011;43708;48.828;9.166;2023-04-25T13:42:20;1.40;;;1.23;;
57891;SDS011;43708;48.828;9.166;2023-04-25T13:44:46;2.58;;;1.20;;
57891;SDS011;43708;48.828;9.166;2023-04-25T13:47:11;1.10;;;1.00;;
57891;SDS011;43708;48.828;9.166;2023-04-25T13:49:37;2.00;;;1.20;;
57891;SDS011;43708;48.828;9.166;2023-04-25T13:52:02;1.13;;;1.00;;
57891;SDS011;43708;48.828;9.166;2023-04-25T13:54:28;1.58;;;0.90;;
57891;SDS011;43708;48.828;9.166;2023-04-25T13:56:53;1.60;;;1.40;;
57891;SDS011;43708;48.828;9.166;2023-04-25T13:59:23;1.40;;;1.30;;
57891;SDS011;43708;48.828;9.166;2023-04-25T14:01:49;2.95;;;1.40;;
57891;SDS011;43708;48.828;9.166;2023-04-25T14:04:14;1.67;;;1.42;;
57891;SDS011;43708;48.828;9.166;2023-04-25T14:06:40;1.45;;;1.25;;
57891;SDS011;43708;48.828;9.166;2023-04-25T14:09:06;1.48;;;1.20;;
57891;SDS011;43708;48.828;9.166;2023-04-25T14:11:36;1.42;;;1.33;;
57891;SDS011;43708;48.828;9.166;2023-04-25T14:14:02;1.45;;;1.20;;
57891;SDS011;43708;48.828;9.166;2023-04-25T14:16:27;1.17;;;1.08;;
57891;SDS011;43708;48.828;9.166;2023-04-25T14:18:53;1.42;;;1.23;;
57891;SDS011;43708;48.828;9.166;2023-04-25T14:21:19;1.83;;;1.42;;
57891;SDS011;43708;48.828;9.166;2023-04-25T14:23:46;2.28;;;1.23;;
57891;SDS011;43708;48.828;9.166;2023-04-25T14:26:12;2.78;;;1.52;;
57891;SDS011;43708;48.828;9.166;2023-04-25T14:28:38;1.83;;;1.30;;
57891;SDS011;43708;48.828;9.166;2023-04-25T14:31:03;2.13;;;1.50;;
57891;SDS011;43708;48.828;9.166;2023-04-25T14:33:29;1.65;;;1.05;;
57891;SDS011;43708;48.828;9.166;2023-04-25T14:35:55;1.40;;;1.15;;
57891;SDS011;43708;48.828;9.166;2023-04-25T14:38:21;1.17;;;1.08;;
57891;SDS011;43708;48.828;9.166;2023-04-25T14:40:48;1.35;;;1.13;;
57891;SDS011;43708;48.828;9.166;2023-04-25T14:43:14;1.65;;;1.35;;
57891;SDS011;43708;48.828;9.166;2023-04-25T14:45:40;3.58;;;1.15;;
57891;SDS011;43708;48.828;9.166;2023-04-25T14:48:05;1.20;;;1.10;;
57891;SDS011;43708;48.828;9.166;2023-04-25T14:50:32;2.97;;;1.50;;
57891;SDS011;43708;48.828;9.166;2023-04-25T14:52:57;1.15;;;1.00;;
57891;SDS011;43708;48.828;9.166;2023-04-25T14:55:25;2.00;;;1.25;;
57891;SDS011;43708;48.828;9.166;2023-04-25T14:57:52;2.17;;;1.33;;
57891;SDS011;43708;48.828;9.166;2023-04-25T15:00:21;1.02;;;0.93;;